createdAt,value
2023-02-07T00:01:21.276Z,1.16
2023-02-07T00:03:50.783Z,1.40
2023-02-07T00:06:20.831Z,1.23
2023-02-07T00:08:49.244Z,1.27
2023-02-07T00:11:20.230Z,1.53
2023-02-07T00:13:53.635Z,1.55
2023-02-07T00:16:21.676Z,1.55
2023-02-07T00:18:52.227Z,1.61
2023-02-07T00:21:21.419Z,1.78
2023-02-07T00:23:49.387Z,1.73
2023-02-07T00:26:18.523Z,1.45
2023-02-07T00:28:48.425Z,1.42
2023-02-07T00:31:20.244Z,1.50
2023-02-07T00:33:51.492Z,1.39
2023-02-07T00:36:26.131Z,1.64
2023-02-07T00:38:57.458Z,1.31
2023-02-07T00:41:25.410Z,1.24
2023-02-07T00:43:54.249Z,1.29
2023-02-07T00:46:24.031Z,1.31
2023-02-07T00:48:53.287Z,1.23
2023-02-07T00:51:21.416Z,1.42
2023-02-07T00:53:49.212Z,1.56
2023-02-07T00:56:17.647Z,1.47
2023-02-07T00:58:45.437Z,1.38
2023-02-07T01:01:14.526Z,1.32
2023-02-07T01:03:42.466Z,1.06
2023-02-07T01:06:12.149Z,1.23
2023-02-07T01:08:42.955Z,1.25
2023-02-07T01:11:13.621Z,1.55
2023-02-07T01:13:44.111Z,1.12
2023-02-07T01:16:19.824Z,0.90
2023-02-07T01:18:48.417Z,0.89
2023-02-07T01:21:19.842Z,0.61
2023-02-07T01:23:48.054Z,0.50
2023-02-07T01:26:15.908Z,0.51
2023-02-07T01:28:44.156Z,0.75
2023-02-07T01:31:14.378Z,0.62
2023-02-07T01:33:42.442Z,0.42
2023-02-07T01:36:12.452Z,0.71
2023-02-07T01:38:42.242Z,0.68
2023-02-07T01:41:11.097Z,0.68
2023-02-07T01:43:54.585Z,0.38
2023-02-07T01:46:22.469Z,0.66
2023-02-07T01:48:50.906Z,0.50
2023-02-07T01:51:22.888Z,0.73
2023-02-07T01:53:53.098Z,1.13
2023-02-07T01:56:31.184Z,0.58
2023-02-07T01:59:02.233Z,0.31
2023-02-07T02:01:30.119Z,0.60
2023-02-07T02:03:58.962Z,0.84
2023-02-07T02:06:31.715Z,0.57
2023-02-07T02:09:02.845Z,0.59
2023-02-07T02:12:07.687Z,0.39
2023-02-07T02:14:55.712Z,0.38
2023-02-07T02:17:29.657Z,0.11
2023-02-07T02:20:29.722Z,0.28
2023-02-07T02:23:10.273Z,0.60
2023-02-07T02:26:21.922Z,0.46
2023-02-07T02:29:22.195Z,0.62
2023-02-07T02:32:17.675Z,0.68
2023-02-07T02:34:56.198Z,0.49
2023-02-07T02:37:31.516Z,0.34
2023-02-07T02:40:05.899Z,0.30
2023-02-07T02:42:39.229Z,0.08
2023-02-07T02:45:15.658Z,0.21
2023-02-07T02:47:47.413Z,0.38
2023-02-07T02:50:22.274Z,0.35
2023-02-07T02:52:51.346Z,0.18
2023-02-07T02:55:40.042Z,0.35
2023-02-07T02:58:14.621Z,-0.01
2023-02-07T03:00:58.376Z,0.14
2023-02-07T03:03:42.196Z,0.10
2023-02-07T03:06:25.269Z,0.22
2023-02-07T03:09:01.421Z,0.08
2023-02-07T03:11:33.469Z,0.00
2023-02-07T03:14:09.120Z,0.05
2023-02-07T03:16:47.918Z,0.24
2023-02-07T03:19:23.176Z,0.42
2023-02-07T03:21:56.437Z,-0.25
2023-02-07T03:24:28.237Z,0.00
2023-02-07T03:27:01.056Z,-0.10
2023-02-07T03:29:31.215Z,-0.09
2023-02-07T03:32:03.327Z,0.14
2023-02-07T03:34:36.527Z,0.09
2023-02-07T03:37:11.803Z,-0.44
2023-02-07T03:39:40.287Z,-0.50
2023-02-07T03:42:16.807Z,-0.09
2023-02-07T03:44:47.198Z,-0.12
2023-02-07T03:47:18.177Z,0.13
2023-02-07T03:49:46.120Z,-0.23
2023-02-07T03:52:15.356Z,-0.26
2023-02-07T03:54:43.149Z,-0.30
2023-02-07T03:57:11.013Z,-0.19
2023-02-07T03:59:38.798Z,-0.10
2023-02-07T04:02:06.689Z,-0.21
2023-02-07T04:04:34.556Z,-0.34
2023-02-07T04:07:02.321Z,-0.59
2023-02-07T04:09:31.732Z,-0.27
2023-02-07T04:12:00.422Z,-0.22
2023-02-07T04:14:28.441Z,-0.33
2023-02-07T04:16:56.328Z,-0.35
2023-02-07T04:19:24.199Z,-0.31
2023-02-07T04:21:52.015Z,-0.42
2023-02-07T04:24:19.849Z,-0.16
2023-02-07T04:26:49.021Z,-0.25
2023-02-07T04:29:16.876Z,-0.60
2023-02-07T04:31:44.705Z,-0.26
2023-02-07T04:34:13.046Z,-0.31
2023-02-07T04:36:40.879Z,-0.75
2023-02-07T04:39:08.663Z,-0.56
2023-02-07T04:41:36.486Z,-0.84
2023-02-07T04:44:05.711Z,-0.75
2023-02-07T04:46:34.179Z,-0.76
2023-02-07T04:49:01.978Z,-0.88
2023-02-07T04:51:29.800Z,-0.96
2023-02-07T04:53:57.624Z,-1.16
2023-02-07T04:56:25.393Z,-0.78
2023-02-07T04:58:53.402Z,-0.87
2023-02-07T05:01:22.636Z,-0.65
2023-02-07T05:03:50.460Z,-0.67
2023-02-07T05:06:18.314Z,-0.78
2023-02-07T05:08:46.085Z,-0.95
2023-02-07T05:11:14.642Z,-0.92
2023-02-07T05:13:42.448Z,-0.80
2023-02-07T05:16:10.382Z,-0.99
2023-02-07T05:18:39.569Z,-1.04
2023-02-07T05:21:07.407Z,-0.75
2023-02-07T05:23:35.166Z,-0.69
2023-02-07T05:26:03.094Z,-0.65
2023-02-07T05:28:30.844Z,-0.59
2023-02-07T05:30:58.690Z,-0.72
2023-02-07T05:33:25.661Z,-0.82
2023-02-07T05:35:54.858Z,-0.68
2023-02-07T05:38:22.728Z,-0.55
2023-02-07T05:40:50.766Z,-0.67
2023-02-07T05:43:18.571Z,-0.80
2023-02-07T05:45:46.673Z,-0.64
2023-02-07T05:48:15.088Z,-0.51
2023-02-07T05:50:43.007Z,-0.75
2023-02-07T05:53:12.993Z,-0.51
2023-02-07T05:55:41.835Z,-0.65
2023-02-07T05:58:09.769Z,0.40
2023-02-07T06:00:37.630Z,-0.57
2023-02-07T06:03:05.546Z,-0.69
2023-02-07T06:05:33.815Z,-0.60
2023-02-07T06:08:01.697Z,-0.67
2023-02-07T06:10:30.934Z,-0.70
2023-02-07T06:12:58.865Z,-0.99
2023-02-07T06:15:27.224Z,-1.24
2023-02-07T06:17:55.610Z,-1.20
2023-02-07T06:20:23.862Z,-0.88
2023-02-07T06:22:52.456Z,-0.72
2023-02-07T06:25:21.486Z,-0.67
2023-02-07T06:27:50.928Z,-0.49
2023-02-07T06:30:19.326Z,-0.59
2023-02-07T06:32:47.232Z,-0.60
2023-02-07T06:35:15.619Z,-0.84
2023-02-07T06:37:43.432Z,-0.75
2023-02-07T06:40:12.037Z,-0.69
2023-02-07T06:42:40.338Z,-0.66
2023-02-07T06:45:10.734Z,-0.69
2023-02-07T06:47:38.642Z,-0.73
2023-02-07T06:50:09.149Z,-0.59
2023-02-07T06:52:37.208Z,-1.10
2023-02-07T06:55:05.200Z,-1.25
2023-02-07T06:57:33.097Z,-1.11
2023-02-07T07:00:00.833Z,-0.85
2023-02-07T07:02:30.327Z,-0.77
2023-02-07T07:04:58.133Z,-0.84
2023-02-07T07:07:26.258Z,-1.08
2023-02-07T07:09:54.055Z,-0.88
2023-02-07T07:12:21.906Z,-0.79
2023-02-07T07:14:50.194Z,-0.73
2023-02-07T07:17:17.972Z,-0.67
2023-02-07T07:19:47.152Z,-0.48
2023-02-07T07:22:14.954Z,-0.27
2023-02-07T07:24:42.708Z,-0.46
2023-02-07T07:27:10.565Z,-0.27
2023-02-07T07:29:38.413Z,-0.05
2023-02-07T07:32:06.645Z,-0.34
2023-02-07T07:34:34.714Z,-0.32
2023-02-07T07:37:03.851Z,-0.09
2023-02-07T07:39:31.706Z,0.01
2023-02-07T07:41:59.751Z,-0.15
2023-02-07T07:44:47.855Z,-0.13
2023-02-07T07:47:15.963Z,-0.12
2023-02-07T07:49:43.715Z,-0.02
2023-02-07T07:52:12.937Z,0.32
2023-02-07T07:54:40.963Z,0.83
2023-02-07T07:57:08.786Z,0.44
2023-02-07T07:59:36.523Z,0.37
2023-02-07T08:02:04.312Z,0.39
2023-02-07T08:04:32.092Z,0.55
2023-02-07T08:07:00.357Z,0.47
2023-02-07T08:09:29.580Z,0.64
2023-02-07T08:11:57.461Z,0.65
2023-02-07T08:14:25.219Z,0.59
2023-02-07T08:16:53.041Z,0.95
2023-02-07T08:19:20.840Z,1.61
2023-02-07T08:21:48.620Z,1.53
2023-02-07T08:24:16.495Z,1.03
2023-02-07T08:26:45.629Z,1.35
2023-02-07T08:29:13.463Z,1.60
2023-02-07T08:31:41.340Z,1.42
2023-02-07T08:34:09.244Z,1.52
2023-02-07T08:36:37.057Z,1.81
2023-02-07T08:39:06.668Z,1.66
2023-02-07T08:41:34.685Z,1.76
2023-02-07T08:44:03.849Z,2.06
2023-02-07T08:46:31.769Z,2.20
2023-02-07T08:48:59.639Z,2.45
2023-02-07T08:51:27.465Z,2.50
2023-02-07T08:53:55.436Z,2.87
2023-02-07T08:56:23.237Z,2.54
2023-02-07T08:58:51.014Z,3.36
2023-02-07T09:01:20.151Z,3.13
2023-02-07T09:03:48.112Z,3.14
2023-02-07T09:06:15.916Z,3.31
2023-02-07T09:08:43.744Z,3.71
2023-02-07T09:11:11.781Z,3.81
2023-02-07T09:13:39.653Z,4.16
2023-02-07T09:16:07.736Z,3.80
2023-02-07T09:18:36.856Z,4.00
2023-02-07T09:21:05.035Z,4.00
2023-02-07T09:23:35.612Z,4.04
2023-02-07T09:26:05.888Z,4.76
2023-02-07T09:28:34.100Z,4.90
2023-02-07T09:31:09.245Z,5.02
2023-02-07T09:33:39.464Z,4.25
2023-02-07T09:36:18.236Z,4.32
2023-02-07T09:38:47.188Z,4.58
2023-02-07T09:41:27.207Z,4.69
2023-02-07T09:44:05.002Z,4.86
2023-02-07T09:46:37.683Z,4.71
2023-02-07T09:49:12.673Z,4.65
2023-02-07T09:51:41.840Z,4.81
2023-02-07T09:54:19.421Z,4.77
2023-02-07T09:56:48.776Z,5.02
2023-02-07T09:59:25.628Z,5.09
2023-02-07T10:02:01.156Z,4.97
2023-02-07T10:04:36.236Z,5.59
2023-02-07T10:07:07.855Z,5.11
2023-02-07T10:09:39.962Z,4.84
2023-02-07T10:12:27.227Z,5.41
2023-02-07T10:15:10.150Z,5.64
2023-02-07T10:17:55.030Z,5.45
2023-02-07T10:20:37.876Z,4.82
2023-02-07T10:23:20.280Z,5.32
2023-02-07T10:26:00.695Z,5.20
2023-02-07T10:28:48.573Z,5.30
2023-02-07T10:31:19.127Z,5.31
2023-02-07T10:33:50.663Z,5.86
2023-02-07T10:36:20.048Z,5.88
2023-02-07T10:39:03.422Z,5.96
2023-02-07T10:41:39.136Z,5.68
2023-02-07T10:44:09.265Z,6.34
2023-02-07T10:46:39.494Z,6.16
2023-02-07T10:49:07.645Z,6.48
2023-02-07T10:51:39.775Z,6.54
2023-02-07T10:54:09.882Z,6.65
2023-02-07T10:56:43.088Z,6.45
2023-02-07T10:59:33.381Z,6.54
2023-02-07T11:02:01.534Z,6.62
2023-02-07T11:04:37.813Z,9.54
2023-02-07T11:07:08.807Z,12.88
2023-02-07T11:09:38.086Z,13.78
2023-02-07T11:12:16.283Z,13.06
2023-02-07T11:15:01.336Z,12.92
2023-02-07T11:17:30.202Z,11.77
2023-02-07T11:20:03.555Z,11.28
2023-02-07T11:22:33.220Z,13.09
2023-02-07T11:25:04.696Z,12.20
2023-02-07T11:27:38.581Z,11.85
2023-02-07T11:30:10.030Z,10.02
2023-02-07T11:32:39.038Z,10.28
2023-02-07T11:35:09.503Z,11.20
2023-02-07T11:37:41.930Z,12.38
2023-02-07T11:40:25.787Z,12.41
2023-02-07T11:43:00.309Z,13.50
2023-02-07T11:45:29.519Z,13.75
2023-02-07T11:47:59.599Z,13.35
2023-02-07T11:50:30.891Z,13.58
2023-02-07T11:53:01.710Z,15.17
2023-02-07T11:55:35.257Z,17.12
2023-02-07T11:58:10.174Z,15.31
2023-02-07T12:00:39.729Z,14.47
2023-02-07T12:03:10.948Z,16.24
2023-02-07T12:05:43.227Z,14.72
2023-02-07T12:08:16.743Z,13.30
2023-02-07T12:10:48.741Z,13.06
2023-02-07T12:13:20.864Z,10.00
2023-02-07T12:15:51.861Z,10.90
2023-02-07T12:18:29.583Z,10.27
2023-02-07T12:21:03.274Z,11.67
2023-02-07T12:23:43.623Z,12.82
2023-02-07T12:26:21.018Z,10.70
2023-02-07T12:29:12.422Z,10.28
2023-02-07T12:31:51.850Z,11.55
2023-02-07T12:34:27.193Z,11.67
2023-02-07T12:37:01.530Z,10.16
2023-02-07T12:39:38.825Z,12.23
2023-02-07T12:42:21.632Z,11.20
2023-02-07T12:44:55.939Z,10.90
2023-02-07T12:47:35.760Z,9.66
2023-02-07T12:50:24.907Z,10.83
2023-02-07T12:53:05.589Z,11.33
2023-02-07T12:55:43.598Z,11.02
2023-02-07T12:58:30.917Z,9.68
2023-02-07T13:01:04.486Z,10.94
2023-02-07T13:03:56.702Z,11.15
2023-02-07T13:06:33.160Z,11.30
2023-02-07T13:09:08.836Z,11.67
2023-02-07T13:11:42.867Z,12.58
2023-02-07T13:14:23.356Z,11.80
2023-02-07T13:16:58.587Z,12.65
2023-02-07T13:19:35.791Z,12.26
2023-02-07T13:22:08.738Z,11.11
2023-02-07T13:24:40.843Z,11.28
2023-02-07T13:27:18.230Z,10.51
2023-02-07T13:29:49.070Z,10.83
2023-02-07T13:32:22.072Z,12.63
2023-02-07T13:34:55.786Z,13.54
2023-02-07T13:37:29.643Z,12.09
2023-02-07T13:40:03.278Z,11.26
2023-02-07T13:42:41.952Z,12.16
2023-02-07T13:45:18.647Z,12.40
2023-02-07T13:48:02.673Z,12.90
2023-02-07T13:50:41.489Z,13.58
2023-02-07T13:53:22.662Z,11.96
2023-02-07T13:55:50.937Z,10.38
2023-02-07T13:59:11.383Z,9.51
2023-02-07T14:01:49.360Z,9.57
2023-02-07T14:04:18.076Z,10.07
2023-02-07T14:06:56.171Z,10.05
2023-02-07T14:09:32.587Z,10.87
2023-02-07T14:12:04.354Z,12.17
2023-02-07T14:14:35.902Z,11.95
2023-02-07T14:17:05.899Z,11.15
2023-02-07T14:19:52.506Z,11.37
2023-02-07T14:22:23.634Z,12.37
2023-02-07T14:25:27.232Z,13.68
2023-02-07T14:28:20.655Z,12.75
2023-02-07T14:31:13.434Z,14.22
2023-02-07T14:33:42.660Z,14.41
2023-02-07T14:36:22.347Z,13.89
2023-02-07T14:39:23.860Z,13.11
2023-02-07T14:41:53.275Z,12.93
2023-02-07T14:44:26.549Z,13.96
2023-02-07T14:46:58.925Z,13.73
2023-02-07T14:49:33.557Z,13.31
2023-02-07T14:52:05.052Z,13.81
2023-02-07T14:54:42.807Z,14.21
2023-02-07T14:57:26.174Z,14.55
2023-02-07T15:00:01.337Z,15.35
2023-02-07T15:02:34.492Z,17.23
2023-02-07T15:05:18.845Z,16.98
2023-02-07T15:07:47.992Z,16.36
2023-02-07T15:10:17.356Z,15.60
2023-02-07T15:12:45.242Z,14.46
2023-02-07T15:15:19.938Z,14.02
2023-02-07T15:17:50.509Z,13.05
2023-02-07T15:20:21.288Z,14.36
2023-02-07T15:22:50.959Z,14.66
2023-02-07T15:25:19.376Z,14.52
2023-02-07T15:28:01.254Z,12.46
2023-02-07T15:30:29.923Z,11.47
2023-02-07T15:32:59.338Z,10.52
2023-02-07T15:35:30.194Z,10.31
2023-02-07T15:38:17.954Z,10.11
2023-02-07T15:40:45.762Z,9.95
2023-02-07T15:43:32.246Z,9.89
2023-02-07T15:46:02.719Z,9.77
2023-02-07T15:48:32.596Z,9.33
2023-02-07T15:51:04.853Z,9.08
2023-02-07T15:53:33.039Z,8.33
2023-02-07T15:56:00.946Z,8.44
2023-02-07T15:58:32.904Z,8.24
2023-02-07T16:01:02.732Z,7.80
2023-02-07T16:03:36.776Z,7.45
2023-02-07T16:06:17.858Z,6.98
2023-02-07T16:08:46.652Z,7.22
2023-02-07T16:11:33.847Z,6.65
2023-02-07T16:14:04.234Z,6.78
2023-02-07T16:16:39.398Z,6.37
2023-02-07T16:19:17.073Z,6.33
2023-02-07T16:21:47.362Z,5.98
2023-02-07T16:24:18.813Z,5.88
2023-02-07T16:26:48.274Z,6.00
2023-02-07T16:29:18.661Z,5.56
2023-02-07T16:31:46.989Z,5.37
2023-02-07T16:34:18.750Z,5.31
2023-02-07T16:36:50.148Z,5.26
2023-02-07T16:39:17.928Z,4.99
2023-02-07T16:41:48.387Z,4.99
2023-02-07T16:44:21.090Z,4.80
2023-02-07T16:46:48.863Z,5.04
2023-02-07T16:49:20.649Z,4.98
2023-02-07T16:51:48.561Z,4.70
2023-02-07T16:54:16.550Z,4.08
2023-02-07T16:56:45.691Z,4.06
2023-02-07T16:59:15.659Z,3.74
2023-02-07T17:01:43.390Z,3.64
2023-02-07T17:04:12.085Z,3.69
2023-02-07T17:06:42.017Z,3.65
2023-02-07T17:09:15.936Z,4.04
2023-02-07T17:11:43.831Z,3.70
2023-02-07T17:14:11.935Z,3.82
2023-02-07T17:16:39.837Z,3.90
2023-02-07T17:19:13.080Z,3.74
2023-02-07T17:21:42.985Z,3.55
2023-02-07T17:24:11.617Z,3.60
2023-02-07T17:26:43.770Z,3.53
2023-02-07T17:29:16.837Z,3.50
2023-02-07T17:31:45.537Z,3.42
2023-02-07T17:34:13.638Z,3.60
2023-02-07T17:36:46.633Z,3.13
2023-02-07T17:39:15.964Z,2.83
2023-02-07T17:41:43.793Z,3.09
2023-02-07T17:44:11.612Z,2.82
2023-02-07T17:46:39.549Z,2.92
2023-02-07T17:49:13.897Z,2.45
2023-02-07T17:51:43.292Z,2.43
2023-02-07T17:54:11.362Z,2.30
2023-02-07T17:56:39.229Z,2.23
2023-02-07T17:59:10.132Z,2.30
2023-02-07T18:01:37.912Z,2.43
2023-02-07T18:04:06.470Z,2.57
2023-02-07T18:06:34.231Z,2.35
2023-02-07T18:09:04.043Z,2.34
2023-02-07T18:11:32.723Z,2.52
2023-02-07T18:14:01.926Z,2.40
2023-02-07T18:16:29.754Z,2.29
2023-02-07T18:18:58.042Z,2.40
2023-02-07T18:21:26.219Z,2.19
2023-02-07T18:23:54.166Z,2.57
2023-02-07T18:26:24.294Z,1.99
2023-02-07T18:28:52.290Z,2.01
2023-02-07T18:31:24.106Z,1.74
2023-02-07T18:33:53.050Z,1.85
2023-02-07T18:36:21.955Z,1.73
2023-02-07T18:38:49.889Z,1.15
2023-02-07T18:41:20.624Z,1.12
2023-02-07T18:43:51.620Z,1.27
2023-02-07T18:46:21.363Z,1.49
2023-02-07T18:48:50.410Z,1.04
2023-02-07T18:51:19.357Z,0.92
2023-02-07T18:53:48.053Z,1.10
2023-02-07T18:56:18.404Z,1.51
2023-02-07T18:58:47.693Z,1.31
2023-02-07T19:01:19.917Z,1.40
2023-02-07T19:03:51.306Z,1.31
2023-02-07T19:06:19.200Z,1.20
2023-02-07T19:08:47.217Z,1.14
2023-02-07T19:11:15.441Z,0.95
2023-02-07T19:13:43.500Z,0.70
2023-02-07T19:16:13.739Z,0.90
2023-02-07T19:18:42.993Z,1.07
2023-02-07T19:21:12.637Z,1.10
2023-02-07T19:23:41.054Z,0.94
2023-02-07T19:26:09.413Z,0.96
2023-02-07T19:28:38.245Z,0.81
2023-02-07T19:31:07.023Z,0.82
2023-02-07T19:33:35.002Z,0.91
2023-02-07T19:36:07.019Z,0.88
2023-02-07T19:38:35.347Z,0.60
2023-02-07T19:41:03.866Z,0.74
2023-02-07T19:43:31.768Z,0.77
2023-02-07T19:45:59.774Z,0.89
2023-02-07T19:48:27.900Z,0.86
2023-02-07T19:51:00.034Z,1.19
2023-02-07T19:53:30.462Z,0.99
2023-02-07T19:56:02.342Z,0.80
2023-02-07T19:58:30.499Z,0.56
2023-02-07T20:00:58.974Z,0.57
2023-02-07T20:03:27.343Z,1.23
2023-02-07T20:05:55.202Z,1.46
2023-02-07T20:08:22.936Z,1.55
2023-02-07T20:10:52.189Z,1.06
2023-02-07T20:13:20.798Z,1.08
2023-02-07T20:15:49.036Z,1.31
2023-02-07T20:18:16.845Z,1.27
2023-02-07T20:20:48.093Z,1.23
2023-02-07T20:23:16.206Z,1.36
2023-02-07T20:25:44.156Z,1.45
2023-02-07T20:28:13.314Z,1.30
2023-02-07T20:30:45.010Z,1.16
2023-02-07T20:33:12.825Z,0.99
2023-02-07T20:35:41.016Z,0.90
2023-02-07T20:38:08.789Z,1.03
2023-02-07T20:40:36.696Z,1.29
2023-02-07T20:43:04.536Z,1.35
2023-02-07T20:45:33.712Z,1.70
2023-02-07T20:48:01.545Z,1.22
2023-02-07T20:50:29.402Z,1.16
2023-02-07T20:52:57.154Z,1.24
2023-02-07T20:55:24.930Z,1.22
2023-02-07T20:57:52.641Z,1.33
2023-02-07T21:00:20.730Z,1.33
2023-02-07T21:02:49.885Z,1.10
2023-02-07T21:05:17.983Z,1.13
2023-02-07T21:07:45.728Z,0.75
2023-02-07T21:10:13.816Z,0.92
2023-02-07T21:12:41.611Z,0.71
2023-02-07T21:15:10.216Z,0.71
2023-02-07T21:17:38.112Z,0.52
2023-02-07T21:20:08.035Z,0.93
2023-02-07T21:22:36.275Z,0.97
2023-02-07T21:25:04.047Z,0.13
2023-02-07T21:27:31.803Z,0.66
2023-02-07T21:29:59.642Z,0.32
2023-02-07T21:32:27.432Z,0.30
2023-02-07T21:34:55.211Z,0.33
2023-02-07T21:37:24.597Z,0.65
2023-02-07T21:39:52.465Z,0.25
2023-02-07T21:42:20.304Z,0.54
2023-02-07T21:44:48.161Z,0.39
2023-02-07T21:47:15.934Z,0.16
2023-02-07T21:49:44.830Z,0.69
2023-02-07T21:52:12.583Z,0.88
2023-02-07T21:54:42.074Z,0.35
2023-02-07T21:57:09.862Z,0.30
2023-02-07T21:59:37.937Z,0.39
2023-02-07T22:02:05.686Z,0.15
2023-02-07T22:04:34.544Z,0.46
2023-02-07T22:07:02.358Z,0.42
2023-02-07T22:09:30.174Z,0.62
2023-02-07T22:11:59.382Z,0.64
2023-02-07T22:14:29.302Z,0.79
2023-02-07T22:16:58.145Z,0.85
2023-02-07T22:19:25.950Z,0.96
2023-02-07T22:21:53.737Z,0.99
2023-02-07T22:24:21.723Z,1.00
2023-02-07T22:26:49.526Z,1.02
2023-02-07T22:29:18.658Z,0.94
2023-02-07T22:31:46.630Z,1.06
2023-02-07T22:34:15.816Z,1.10
2023-02-07T22:36:45.714Z,0.93
2023-02-07T22:39:16.216Z,0.77
2023-02-07T22:41:44.208Z,0.68
2023-02-07T22:44:12.080Z,0.28
2023-02-07T22:46:41.296Z,0.33
2023-02-07T22:49:09.055Z,0.34
2023-02-07T22:51:38.812Z,0.42
2023-02-07T22:54:08.359Z,0.48
2023-02-07T22:56:38.065Z,0.36
2023-02-07T22:59:06.968Z,0.19
2023-02-07T23:01:36.728Z,0.16
2023-02-07T23:04:07.293Z,-0.00
2023-02-07T23:06:35.138Z,0.18
2023-02-07T23:09:05.238Z,0.00
2023-02-07T23:11:33.752Z,0.12
2023-02-07T23:14:01.630Z,0.30
2023-02-07T23:16:30.757Z,0.27
2023-02-07T23:19:02.869Z,0.18
2023-02-07T23:21:32.300Z,0.04
2023-02-07T23:24:00.032Z,0.27
2023-02-07T23:26:28.509Z,0.06
2023-02-07T23:28:56.316Z,0.07
2023-02-07T23:31:25.705Z,0.21
2023-02-07T23:33:54.336Z,0.01
2023-02-07T23:36:22.945Z,0.02
2023-02-07T23:38:52.418Z,-0.20
2023-02-07T23:41:20.511Z,-0.04
2023-02-07T23:43:48.300Z,-0.25
2023-02-07T23:46:17.447Z,-0.21
2023-02-07T23:48:45.733Z,-0.26
2023-02-07T23:51:14.456Z,0.26
2023-02-07T23:53:42.795Z,0.21
2023-02-07T23:56:15.822Z,-0.44
2023-02-07T23:58:44.847Z,-0.60
